Karlstad, Minnesota
Current Conditions -  °F | °C
As of 1:13 AM on Wednesday 22 Oct 2014 (Local Time) from KHCO Reporting Station
Clear Clear  
Wind Chill: 54°   Ceiling: Unl
Heat Index: 54°   Visibility: 10mi
Dew Point: 41°   Wind: 22mph
Humidity: 62%   Direction: 160°SSE
Pressure: 29.83"   Gusts: 28mph
Location:  48.58°N, 96.52°W
Report Text: KHCO 220613Z AUTO 16019G24KT 10SM CLR 12/05 A2983 RMK AO2
Loading
Personal Weather Stations






























Interactive Weather Map
Tropical Storm Tracking
New forecast layout! Learn more

10-Day Weather Forecast

Advertisements
Track Severe Weather on mobile